PAJN/JNU METAR and TAF weather

Enter ICAO airport designator
Station Type Date Time Source
PAJN METAR 2020/09/23 18:53 UTC NOAA

PAJN 231853Z 25005KT 10SM -RA FEW004 FEW050 OVC065 12/09 A2926 RMK A02 SLP909 P0000 T01170094


Station Type Date Time Source
PAJN Decoded METAR 2020/09/23 18:53 UTC NOAA

JUNEAU INTERNATIONAL AIRPORT, AK, United States (PAJN) 58-21N 134-34W 8M
Sep 23, 2020 - 02:53 PM EDT / 2020.09.23 1853 UTC
Wind: from the WSW (250 degrees) at 6 MPH (5 KT):0
Visibility: 10 mile(s):0
Sky conditions: overcast
Weather: light rain
Precipitation last hour: A trace
Temperature: 53.1 F (11.7 C)
Dew Point: 48.9 F (9.4 C)
Relative Humidity: 85%
Pressure (altimeter): 29.26 in. Hg (990 hPa)
ob: PAJN 231853Z 25005KT 10SM -RA FEW004 FEW050 OVC065 12/09 A2926 RMK A02 SLP909 P0000 T01170094
cycle: 19

Station Type Date Time Source
PAJN TAF 2020/09/23 19:15 UTC NOAA

TAF
AMD PAJN 231913Z 2319/2418 VRB04KT P6SM -SHRA FEW005 SCT030 OVC090 WS020/10030KT
FM232100 09005KT P6SM -SHRA OVC050
FM241200 VRB03KT P6SM SCT015 BKN040

Example: see airport list